Terminal Aerodrome Forecast
Issued by NWS

Home | Current Version | Previous Version | Text Only | Print | Product List | Glossary Off
Versions: 1 2 3 4 5 6 7 8 9 10 11 12 13 14 15

000
FTUS43 KMPX 180535
TAFRWF
TAF
KRWF 180535Z 1806/1906 04008KT P6SM VCSH BKN070
     FM180700 18009KT P6SM SCT070 BKN250
     FM181500 24006KT P6SM SCT070 BKN120
     FM181700 07006KT P6SM SHRA VCTS SCT020 BKN040CB
     FM190000 06005KT P6SM SCT040=

USA.gov is the U.S. government's official web portal to all federal, state and local government web resources and services.